KFKN/FKN METAR and TAF weather

Enter ICAO airport designator
Station Type Date Time Source
KFKN METAR 2019/06/16 05:15 UTC NOAA

KFKN 160515Z AUTO 16006KT 10SM CLR 19/16 A3008 RMK AO2 T01890161


Station Type Date Time Source
KFKN Decoded METAR 2019/06/16 05:15 UTC NOAA

Franklin / J B Rose, VA, United States (KFKN) 36-42N 076-54W
Jun 16, 2019 - 01:15 AM EDT / 2019.06.16 0515 UTC
Wind: from the SSE (160 degrees) at 7 MPH (6 KT):0
Visibility: 10 mile(s):0
Sky conditions: clear
Temperature: 66.0 F (18.9 C)
Dew Point: 61.0 F (16.1 C)
Relative Humidity: 83%
Pressure (altimeter): 30.08 in. Hg (1018 hPa)
ob: KFKN 160515Z AUTO 16006KT 10SM CLR 19/16 A3008 RMK AO2 T01890161
cycle: 5

Station Type Date Time Source
KFKN TAF UTC NOAA

Error!

Example: see airport list